createdAt,value
2019-01-06T00:00:45.507Z,4.33
2019-01-06T00:03:52.304Z,4.03
2019-01-06T00:06:49.755Z,3.30
2019-01-06T00:09:44.619Z,3.40
2019-01-06T00:12:22.517Z,3.23
2019-01-06T00:15:29.558Z,3.30
2019-01-06T00:18:11.047Z,4.03
2019-01-06T00:20:59.698Z,3.17
2019-01-06T00:23:53.850Z,3.80
2019-01-06T00:26:48.062Z,3.00
2019-01-06T00:29:42.162Z,3.70
2019-01-06T00:32:31.299Z,2.60
2019-01-06T00:35:32.379Z,3.07
2019-01-06T00:38:26.818Z,5.30
2019-01-06T00:45:18.436Z,3.23
2019-01-06T00:48:08.823Z,3.67
2019-01-06T00:50:57.061Z,3.17
2019-01-06T00:53:48.375Z,4.03
2019-01-06T00:56:48.737Z,3.60
2019-01-06T00:59:36.075Z,4.33
2019-01-06T01:02:27.618Z,3.80
2019-01-06T01:05:37.888Z,4.33
2019-01-06T01:08:38.909Z,4.47
2019-01-06T01:11:34.536Z,4.53
2019-01-06T01:14:21.895Z,5.13
2019-01-06T01:17:25.349Z,3.90
2019-01-06T01:21:08.043Z,4.17
2019-01-06T01:23:38.259Z,3.90
2019-01-06T01:26:26.366Z,4.97
2019-01-06T01:29:40.584Z,4.30
2019-01-06T01:32:40.282Z,2.87
2019-01-06T01:35:42.699Z,3.27
2019-01-06T01:38:42.969Z,3.23
2019-01-06T01:41:34.492Z,3.00
2019-01-06T01:44:23.538Z,3.07
2019-01-06T01:47:10.470Z,2.03
2019-01-06T01:50:07.137Z,3.37
2019-01-06T01:52:54.360Z,2.23
2019-01-06T01:55:51.681Z,2.60
2019-01-06T01:58:43.287Z,1.70
2019-01-06T02:01:43.971Z,2.10
2019-01-06T02:04:32.652Z,1.60
2019-01-06T02:07:20.024Z,1.80
2019-01-06T02:10:21.069Z,1.90
2019-01-06T02:13:08.022Z,2.30
2019-01-06T02:16:11.287Z,2.70
2019-01-06T02:19:03.203Z,1.90
2019-01-06T02:21:54.077Z,2.03
2019-01-06T02:24:45.740Z,2.33
2019-01-06T02:27:32.741Z,1.70
2019-01-06T02:30:19.710Z,2.07
2019-01-06T02:33:06.979Z,2.10
2019-01-06T02:35:58.624Z,2.77
2019-01-06T02:38:45.776Z,1.80
2019-01-06T02:41:35.154Z,1.60
2019-01-06T02:44:27.101Z,3.33
2019-01-06T02:47:14.152Z,2.07
2019-01-06T02:50:07.078Z,1.53
2019-01-06T02:52:55.073Z,2.77
2019-01-06T02:55:42.891Z,1.67
2019-01-06T02:58:29.878Z,2.37
2019-01-06T03:01:27.024Z,1.93
2019-01-06T03:04:14.352Z,2.27
2019-01-06T03:07:17.245Z,1.60
2019-01-06T03:10:04.374Z,1.70
2019-01-06T03:12:51.286Z,1.83
2019-01-06T03:15:42.928Z,1.80
2019-01-06T03:18:37.874Z,2.53
2019-01-06T03:21:41.752Z,1.60
2019-01-06T03:24:48.528Z,1.10
2019-01-06T03:27:38.683Z,1.67
2019-01-06T03:30:25.789Z,1.10
2019-01-06T03:33:26.103Z,1.03
2019-01-06T03:36:17.599Z,1.00
2019-01-06T03:39:06.104Z,1.30
2019-01-06T03:42:01.155Z,1.10
2019-01-06T03:44:49.088Z,1.10
2019-01-06T03:47:45.565Z,1.37
2019-01-06T03:50:32.632Z,1.60
2019-01-06T03:53:21.153Z,2.53
2019-01-06T03:56:09.833Z,1.67
2019-01-06T03:58:58.476Z,1.53
2019-01-06T04:01:50.146Z,1.30
2019-01-06T04:04:45.927Z,1.60
2019-01-06T04:07:43.309Z,1.80
2019-01-06T04:10:40.570Z,3.20
2019-01-06T04:13:27.951Z,1.70
2019-01-06T04:16:15.074Z,1.90
2019-01-06T04:19:01.825Z,2.73
2019-01-06T04:21:50.428Z,2.70
2019-01-06T04:24:36.657Z,2.43
2019-01-06T04:27:14.595Z,2.73
2019-01-06T04:30:12.746Z,2.37
2019-01-06T04:33:07.286Z,2.20
2019-01-06T04:35:59.140Z,3.03
2019-01-06T04:39:05.947Z,2.53
2019-01-06T04:41:52.867Z,2.77
2019-01-06T04:44:56.351Z,2.27
2019-01-06T04:47:43.308Z,2.70
2019-01-06T04:50:30.342Z,4.00
2019-01-06T04:53:15.749Z,3.20
2019-01-06T04:56:16.482Z,3.20
2019-01-06T04:59:17.524Z,2.87
2019-01-06T05:02:10.980Z,3.80
2019-01-06T05:04:57.684Z,3.23
2019-01-06T05:07:52.222Z,4.37
2019-01-06T05:10:56.068Z,3.87
2019-01-06T05:13:46.643Z,3.97
2019-01-06T05:16:33.688Z,4.30
2019-01-06T05:19:30.950Z,4.90
2019-01-06T05:22:09.329Z,4.03
2019-01-06T05:24:57.028Z,6.10
2019-01-06T05:27:43.708Z,4.07
2019-01-06T05:30:30.651Z,3.63
2019-01-06T05:33:19.010Z,4.30
2019-01-06T05:36:06.649Z,3.67
2019-01-06T05:38:55.236Z,3.40
2019-01-06T05:41:43.867Z,4.43
2019-01-06T05:44:31.174Z,4.00
2019-01-06T05:47:20.561Z,4.03
2019-01-06T05:50:07.763Z,4.40
2019-01-06T05:52:59.198Z,4.00
2019-01-06T05:55:59.424Z,6.37
2019-01-06T05:58:56.618Z,3.87
2019-01-06T06:01:44.472Z,5.87
2019-01-06T06:04:41.913Z,4.23
2019-01-06T06:07:33.323Z,3.77
2019-01-06T06:10:20.242Z,4.43
2019-01-06T06:13:12.028Z,3.77
2019-01-06T06:15:59.119Z,3.67
2019-01-06T06:18:47.500Z,5.83
2019-01-06T06:21:41.588Z,4.03
2019-01-06T06:24:28.394Z,5.00
2019-01-06T06:27:31.595Z,6.53
2019-01-06T06:30:20.172Z,4.00
2019-01-06T06:33:07.424Z,3.60
2019-01-06T06:35:55.729Z,3.27
2019-01-06T06:38:43.992Z,4.50
2019-01-06T06:41:31.098Z,5.00
2019-01-06T06:44:25.308Z,4.33
2019-01-06T06:47:16.625Z,4.73
2019-01-06T06:50:03.684Z,5.27
2019-01-06T06:52:57.830Z,4.03
2019-01-06T06:55:44.475Z,4.00
2019-01-06T06:58:31.486Z,3.30
2019-01-06T07:02:04.792Z,7.60
2019-01-06T07:04:56.121Z,3.70
2019-01-06T07:07:42.757Z,3.80
2019-01-06T07:10:29.656Z,3.70
2019-01-06T07:13:24.193Z,3.92
2019-01-06T07:16:12.489Z,3.70
2019-01-06T07:19:15.949Z,3.10
2019-01-06T07:22:13.304Z,3.03
2019-01-06T07:25:13.754Z,3.60
2019-01-06T07:28:08.182Z,3.23
2019-01-06T07:31:11.645Z,2.63
2019-01-06T07:33:52.869Z,3.30
2019-01-06T07:36:41.188Z,3.63
2019-01-06T07:39:27.905Z,2.80
2019-01-06T07:42:22.232Z,3.85
2019-01-06T07:45:10.574Z,4.80
2019-01-06T07:47:52.378Z,3.85
2019-01-06T07:50:39.440Z,2.90
2019-01-06T07:53:35.421Z,3.40
2019-01-06T07:56:29.802Z,3.60
2019-01-06T07:59:14.590Z,3.70
2019-01-06T08:02:20.907Z,3.80
2019-01-06T08:05:07.132Z,3.43
2019-01-06T08:08:04.755Z,2.77
2019-01-06T08:11:00.896Z,2.80
2019-01-06T08:13:47.599Z,3.50
2019-01-06T08:16:38.988Z,2.80
2019-01-06T08:19:30.108Z,2.60
2019-01-06T08:22:16.864Z,2.67
2019-01-06T08:25:11.154Z,2.60
2019-01-06T08:28:00.295Z,2.93
2019-01-06T08:30:47.062Z,4.50
2019-01-06T08:33:26.244Z,2.43
2019-01-06T08:36:26.818Z,4.43
2019-01-06T08:39:13.688Z,2.40
2019-01-06T08:42:00.476Z,2.40
2019-01-06T08:45:04.087Z,2.95
2019-01-06T08:48:10.404Z,2.13
2019-01-06T08:50:56.370Z,1.80
2019-01-06T08:53:43.248Z,2.43
2019-01-06T08:56:32.550Z,2.37
2019-01-06T08:59:34.596Z,2.50
2019-01-06T09:02:25.847Z,1.97
2019-01-06T09:05:17.945Z,2.43
2019-01-06T09:08:04.901Z,2.30
2019-01-06T09:10:52.107Z,2.40
2019-01-06T09:13:40.502Z,2.17
2019-01-06T09:16:46.933Z,2.13
2019-01-06T09:19:33.897Z,2.87
2019-01-06T09:22:25.024Z,2.60
2019-01-06T09:25:25.401Z,3.53
2019-01-06T09:28:12.164Z,3.23
2019-01-06T09:31:00.779Z,2.63
2019-01-06T09:33:58.118Z,2.33
2019-01-06T09:36:52.373Z,2.53
2019-01-06T09:39:40.756Z,2.63
2019-01-06T09:42:27.796Z,2.10
2019-01-06T09:45:31.405Z,2.70
2019-01-06T09:48:19.782Z,2.10
2019-01-06T09:51:14.248Z,2.30
2019-01-06T09:54:01.162Z,2.37
2019-01-06T09:56:52.631Z,1.83
2019-01-06T09:59:53.140Z,1.20
2019-01-06T10:02:31.792Z,1.97
2019-01-06T10:05:20.186Z,3.43
2019-01-06T10:08:20.732Z,2.07
2019-01-06T10:11:12.161Z,1.73
2019-01-06T10:13:59.326Z,1.47
2019-01-06T10:16:46.156Z,1.83
2019-01-06T10:19:40.603Z,1.40
2019-01-06T10:22:43.952Z,1.50
2019-01-06T10:25:47.494Z,1.57
2019-01-06T10:28:38.751Z,1.27
2019-01-06T10:31:39.282Z,1.47
2019-01-06T10:34:30.781Z,1.30
2019-01-06T10:37:22.209Z,1.40
2019-01-06T10:40:09.023Z,1.30
2019-01-06T10:43:00.271Z,1.40
2019-01-06T10:45:49.117Z,1.47
2019-01-06T10:48:43.931Z,1.30
2019-01-06T10:51:30.863Z,1.10
2019-01-06T10:54:25.491Z,1.40
2019-01-06T10:57:21.413Z,1.30
2019-01-06T11:00:08.570Z,1.47
2019-01-06T11:02:57.302Z,1.20
2019-01-06T11:05:55.199Z,1.27
2019-01-06T11:08:42.246Z,2.03
2019-01-06T11:11:33.764Z,1.30
2019-01-06T11:14:22.223Z,1.50
2019-01-06T11:17:13.862Z,1.50
2019-01-06T11:20:00.904Z,1.40
2019-01-06T11:22:55.460Z,1.73
2019-01-06T11:25:49.794Z,1.20
2019-01-06T11:28:38.406Z,1.77
2019-01-06T11:31:25.386Z,1.73
2019-01-06T11:34:19.885Z,4.10
2019-01-06T11:37:17.750Z,2.10
2019-01-06T11:40:12.702Z,1.30
2019-01-06T11:43:22.517Z,1.57
2019-01-06T11:46:10.389Z,1.67
2019-01-06T11:48:57.895Z,2.67
2019-01-06T11:51:55.292Z,1.60
2019-01-06T11:54:56.066Z,1.70
2019-01-06T11:57:53.488Z,1.60
2019-01-06T12:00:59.996Z,1.50
2019-01-06T12:03:54.505Z,1.57
2019-01-06T12:06:58.115Z,3.77
2019-01-06T12:09:46.185Z,1.57
2019-01-06T12:12:33.066Z,1.57
2019-01-06T12:15:27.592Z,2.00
2019-01-06T12:18:14.796Z,1.90
2019-01-06T12:21:01.960Z,5.23
2019-01-06T12:23:47.629Z,1.80
2019-01-06T12:26:36.480Z,1.30
2019-01-06T12:29:33.774Z,1.80
2019-01-06T12:32:22.401Z,1.37
2019-01-06T12:35:09.328Z,1.43
2019-01-06T12:37:57.808Z,1.97
2019-01-06T12:40:55.427Z,2.17
2019-01-06T12:43:50.029Z,2.60
2019-01-06T12:46:34.518Z,2.43
2019-01-06T12:49:32.026Z,2.70
2019-01-06T12:52:19.047Z,1.40
2019-01-06T12:55:16.625Z,2.33
2019-01-06T12:58:22.841Z,2.00
2019-01-06T13:01:29.459Z,1.80
2019-01-06T13:04:14.403Z,1.77
2019-01-06T13:07:04.354Z,1.50
2019-01-06T13:09:51.554Z,2.60
2019-01-06T13:12:54.869Z,1.62
2019-01-06T13:15:46.120Z,2.10
2019-01-06T13:18:32.745Z,2.43
2019-01-06T13:21:21.188Z,2.43
2019-01-06T13:24:18.665Z,1.73
2019-01-06T13:27:07.047Z,1.53
2019-01-06T13:29:54.105Z,4.77
2019-01-06T13:32:48.621Z,2.33
2019-01-06T13:35:35.422Z,2.00
2019-01-06T13:38:22.586Z,1.70
2019-01-06T13:41:25.934Z,1.93
2019-01-06T13:44:14.344Z,1.50
2019-01-06T13:47:01.510Z,1.80
2019-01-06T13:49:52.806Z,2.00
2019-01-06T13:52:53.270Z,1.98
2019-01-06T13:55:47.490Z,2.03
2019-01-06T13:58:35.889Z,2.47
2019-01-06T14:01:33.048Z,2.70
2019-01-06T14:04:22.158Z,2.07
2019-01-06T14:07:16.104Z,2.30
2019-01-06T14:10:13.388Z,1.80
2019-01-06T14:13:00.311Z,2.30
2019-01-06T14:15:47.471Z,3.00
2019-01-06T14:18:35.817Z,3.27
2019-01-06T14:21:23.029Z,1.70
2019-01-06T14:24:17.794Z,2.10
2019-01-06T14:27:05.473Z,1.63
2019-01-06T14:30:02.981Z,2.27
2019-01-06T14:32:57.516Z,2.60
2019-01-06T14:35:54.624Z,1.70
2019-01-06T14:38:32.136Z,2.77
2019-01-06T14:41:17.831Z,2.83
2019-01-06T14:43:59.896Z,3.83
2019-01-06T14:47:03.136Z,2.33
2019-01-06T14:49:50.307Z,2.90
2019-01-06T14:52:50.739Z,1.97
2019-01-06T14:55:34.800Z,2.70
2019-01-06T14:58:21.836Z,1.97
2019-01-06T15:01:16.335Z,3.43
2019-01-06T15:04:04.724Z,2.83
2019-01-06T15:07:08.042Z,2.63
2019-01-06T15:09:54.808Z,3.60
2019-01-06T15:12:35.926Z,3.77
2019-01-06T15:15:24.489Z,2.90
2019-01-06T15:18:11.552Z,3.43
2019-01-06T15:21:09.028Z,3.40
2019-01-06T15:23:55.795Z,3.27
2019-01-06T15:26:47.302Z,3.50
2019-01-06T15:29:50.761Z,5.13
2019-01-06T15:32:37.460Z,4.53
2019-01-06T15:35:19.270Z,4.83
2019-01-06T15:37:59.888Z,3.97
2019-01-06T15:40:46.799Z,4.93
2019-01-06T15:43:35.264Z,4.80
2019-01-06T15:46:38.715Z,6.87
2019-01-06T15:49:25.524Z,4.30
2019-01-06T15:52:13.964Z,5.10
2019-01-06T15:55:08.463Z,4.87
2019-01-06T15:58:11.999Z,4.90
2019-01-06T16:00:58.708Z,5.93
2019-01-06T16:03:45.574Z,6.43
2019-01-06T16:06:32.734Z,7.27
2019-01-06T16:09:18.990Z,7.37
2019-01-06T16:12:05.813Z,5.57
2019-01-06T16:15:00.363Z,6.23
2019-01-06T16:18:03.900Z,5.20
2019-01-06T16:20:58.374Z,6.17
2019-01-06T16:23:46.361Z,5.63
2019-01-06T16:26:33.120Z,5.23
2019-01-06T16:29:30.934Z,7.50
2019-01-06T16:32:25.209Z,6.23
2019-01-06T16:35:22.723Z,7.43
2019-01-06T16:38:09.689Z,6.03
2019-01-06T16:41:16.361Z,5.97
2019-01-06T16:44:04.985Z,7.05
2019-01-06T16:46:52.022Z,5.50
2019-01-06T16:49:46.135Z,11.40
2019-01-06T16:52:33.223Z,5.97
2019-01-06T16:55:25.211Z,4.87
2019-01-06T16:58:19.770Z,6.17
2019-01-06T17:01:14.139Z,7.83
2019-01-06T17:03:58.343Z,6.10
2019-01-06T17:06:46.814Z,6.90
2019-01-06T17:09:33.701Z,8.13
2019-01-06T17:12:20.403Z,9.10
2019-01-06T17:15:08.881Z,8.03
2019-01-06T17:18:00.282Z,8.77
2019-01-06T17:21:06.542Z,9.53
2019-01-06T17:23:58.369Z,6.57
2019-01-06T17:27:01.567Z,8.10
2019-01-06T17:30:07.776Z,8.70
2019-01-06T17:32:56.976Z,7.53
2019-01-06T17:35:51.229Z,8.67
2019-01-06T17:38:45.919Z,9.37
2019-01-06T17:41:46.483Z,8.50
2019-01-06T17:44:33.263Z,9.37
2019-01-06T17:47:20.157Z,10.03
2019-01-06T17:50:08.748Z,9.93
2019-01-06T17:52:55.786Z,15.43
2019-01-06T17:55:44.256Z,10.13
2019-01-06T17:58:31.752Z,12.43
2019-01-06T18:01:28.725Z,14.30
2019-01-06T18:04:23.358Z,12.53
2019-01-06T18:07:31.125Z,12.60
2019-01-06T18:10:21.933Z,13.63
2019-01-06T18:13:29.218Z,15.87
2019-01-06T18:16:40.084Z,12.67
2019-01-06T18:19:29.791Z,14.83
2019-01-06T18:22:17.111Z,15.60
2019-01-06T18:25:04.391Z,13.47
2019-01-06T18:27:58.889Z,12.97
2019-01-06T18:31:04.966Z,14.00
2019-01-06T18:33:51.974Z,13.77
2019-01-06T18:36:38.891Z,14.20
2019-01-06T18:39:25.981Z,14.77
2019-01-06T18:42:18.919Z,15.60
2019-01-06T18:45:16.752Z,14.55
2019-01-06T18:48:04.450Z,16.80
2019-01-06T18:51:08.087Z,13.17
2019-01-06T18:53:55.255Z,13.10
2019-01-06T18:56:59.432Z,14.10
2019-01-06T19:06:29.250Z,13.33
2019-01-06T19:09:29.581Z,17.07
2019-01-06T19:12:19.102Z,15.67
2019-01-06T19:15:21.730Z,18.03
2019-01-06T19:23:20.868Z,16.30
2019-01-06T19:26:22.152Z,16.00
2019-01-06T19:29:17.384Z,14.60
2019-01-06T19:32:14.749Z,16.80
2019-01-06T19:35:01.688Z,14.87
2019-01-06T19:37:57.007Z,18.13
2019-01-06T19:41:03.721Z,16.73
2019-01-06T19:44:00.936Z,14.33
2019-01-06T19:46:55.324Z,17.63
2019-01-06T19:49:53.309Z,16.30
2019-01-06T19:52:36.137Z,15.00
2019-01-06T19:55:23.024Z,14.90
2019-01-06T19:58:12.373Z,13.57
2019-01-06T20:01:14.962Z,15.43
2019-01-06T20:04:02.659Z,13.87
2019-01-06T20:06:49.409Z,13.13
2019-01-06T20:09:36.289Z,16.80
2019-01-06T20:12:30.848Z,14.80
2019-01-06T20:15:24.423Z,14.70
2019-01-06T20:18:15.739Z,14.03
2019-01-06T20:21:02.969Z,17.00
2019-01-06T20:23:54.767Z,15.53
2019-01-06T20:26:42.049Z,16.30
2019-01-06T20:29:33.898Z,14.20
2019-01-06T20:32:21.925Z,15.27
2019-01-06T20:35:14.732Z,18.57
2019-01-06T20:38:10.683Z,16.87
2019-01-06T20:41:02.318Z,15.03
2019-01-06T20:44:02.967Z,17.83
2019-01-06T20:46:54.217Z,19.60
2019-01-06T20:50:01.035Z,19.20
2019-01-06T20:52:55.489Z,19.47
2019-01-06T20:55:42.366Z,21.00
2019-01-06T20:58:38.082Z,18.37
2019-01-06T21:01:27.409Z,18.77
2019-01-06T21:04:36.010Z,20.13
2019-01-06T21:07:27.731Z,19.40
2019-01-06T21:10:18.963Z,19.20
2019-01-06T21:13:17.468Z,21.60
2019-01-06T21:16:14.451Z,19.50
2019-01-06T21:18:56.944Z,19.03
2019-01-06T21:21:55.334Z,19.23
2019-01-06T21:24:46.771Z,22.80
2019-01-06T21:27:33.833Z,18.40
2019-01-06T21:30:23.450Z,19.53
2019-01-06T21:33:13.849Z,20.50
2019-01-06T21:36:00.887Z,20.33
2019-01-06T21:38:43.199Z,21.70
2019-01-06T21:41:43.608Z,22.33
2019-01-06T21:44:35.300Z,21.20
2019-01-06T21:47:41.958Z,21.60
2019-01-06T21:50:29.194Z,19.53
2019-01-06T21:53:12.474Z,21.67
2019-01-06T21:55:53.756Z,21.50
2019-01-06T21:59:00.472Z,24.43
2019-01-06T22:05:39.687Z,27.50
2019-01-06T22:08:41.388Z,33.37
2019-01-06T22:11:28.112Z,35.53
2019-01-06T22:14:19.264Z,25.50
2019-01-06T22:17:11.080Z,27.23
2019-01-06T22:20:11.703Z,24.23
2019-01-06T22:22:58.579Z,26.00
2019-01-06T22:25:55.200Z,22.40
2019-01-06T22:28:52.964Z,29.57
2019-01-06T22:31:40.174Z,25.83
2019-01-06T22:34:28.824Z,25.03
2019-01-06T22:37:26.468Z,26.53
2019-01-06T22:40:13.551Z,23.53
2019-01-06T22:43:01.962Z,22.43
2019-01-06T22:45:46.363Z,27.00
2019-01-06T22:48:34.723Z,27.13
2019-01-06T22:51:28.924Z,24.70
2019-01-06T22:54:21.307Z,25.33
2019-01-06T22:57:27.935Z,24.37
2019-01-06T23:00:14.685Z,23.40
2019-01-06T23:03:11.886Z,24.80
2019-01-06T23:05:58.834Z,23.53
2019-01-06T23:08:45.846Z,25.43
2019-01-06T23:11:43.018Z,22.67
2019-01-06T23:14:42.105Z,27.33
2019-01-06T23:17:40.127Z,23.07
2019-01-06T23:20:26.909Z,22.43
2019-01-06T23:23:18.683Z,22.87
2019-01-06T23:26:07.161Z,25.27
2019-01-06T23:28:55.536Z,23.07
2019-01-06T23:31:44.031Z,23.07
2019-01-06T23:34:35.216Z,22.27
2019-01-06T23:37:29.402Z,21.87
2019-01-06T23:40:29.640Z,21.80
2019-01-06T23:43:27.159Z,24.87
2019-01-06T23:46:14.277Z,20.30
2019-01-06T23:49:02.746Z,18.87
2019-01-06T23:51:57.136Z,21.53
2019-01-06T23:54:47.220Z,20.07
2019-01-06T23:57:37.175Z,22.07
